Time;durP1;ratioP1;P1;durP2;ratioP2;P2;SDS_P1;SDS_P2;PMS_P1;PMS_P2;Temp;Humidity;BMP_temperature;BMP_pressure;BME280_temperature;BME280_humidity;BME280_pressure;Samples;Min_cycle;Max_cycle;Signal;HPM_P1;HPM_P2
2023/04/10 00:01:40;;;;;;;9.30;7.72;;;;;;;;;;5074219;28;20407;-81
2023/04/10 00:04:06;;;;;;;12.87;8.30;;;;;;;;;;5073984;28;20657;-80
2023/04/10 00:06:32;;;;;;;11.23;7.75;;;;;;;;;;5073846;28;20425;-81
2023/04/10 00:08:58;;;;;;;11.40;8.30;;;;;;;;;;5074852;28;20204;-80
2023/04/10 00:11:25;;;;;;;8.88;7.15;;;;;;;;;;5057539;28;20415;-80
2023/04/10 00:13:51;;;;;;;9.38;7.10;;;;;;;;;;5057655;28;20238;-81
2023/04/10 00:16:17;;;;;;;11.53;7.70;;;;;;;;;;5073543;28;20604;-80
2023/04/10 00:18:43;;;;;;;10.57;7.60;;;;;;;;;;5073723;28;20419;-81
2023/04/10 00:21:09;;;;;;;8.90;7.43;;;;;;;;;;5074090;28;20426;-80
2023/04/10 00:23:35;;;;;;;9.90;7.33;;;;;;;;;;5073770;28;20407;-80
2023/04/10 00:26:01;;;;;;;9.55;7.13;;;;;;;;;;5057692;28;20488;-80
2023/04/10 00:28:27;;;;;;;10.85;8.18;;;;;;;;;;5073338;28;20240;-80
2023/04/10 00:30:53;;;;;;;9.10;7.20;;;;;;;;;;5075471;28;20200;-80
2023/04/10 00:33:19;;;;;;;10.07;7.77;;;;;;;;;;5074505;28;20977;-81
2023/04/10 00:35:45;;;;;;;9.40;7.40;;;;;;;;;;5075088;28;20396;-81
2023/04/10 00:38:12;;;;;;;10.05;7.80;;;;;;;;;;5074536;28;20207;-83
2023/04/10 00:40:38;;;;;;;9.15;8.23;;;;;;;;;;5057374;28;20655;-81
2023/04/10 00:43:04;;;;;;;10.47;6.70;;;;;;;;;;5075616;28;20184;-80
2023/04/10 00:45:30;;;;;;;10.57;7.50;;;;;;;;;;5073827;28;20811;-81
2023/04/10 00:47:56;;;;;;;8.70;6.97;;;;;;;;;;5073482;28;20466;-80
2023/04/10 00:50:22;;;;;;;12.73;8.68;;;;;;;;;;5073943;28;20191;-81
2023/04/10 00:52:48;;;;;;;10.32;8.10;;;;;;;;;;5073689;28;20210;-80
2023/04/10 00:55:15;;;;;;;12.07;7.38;;;;;;;;;;5074882;28;20173;-81
2023/04/10 00:57:44;;;;;;;16.52;6.65;;;;;;;;;;5073427;28;20184;-81
2023/04/10 01:00:11;;;;;;;10.82;7.93;;;;;;;;;;5076373;28;20165;-80
2023/04/10 01:02:37;;;;;;;8.85;7.45;;;;;;;;;;5077078;28;20173;-81
2023/04/10 01:05:03;;;;;;;11.27;7.80;;;;;;;;;;5078862;28;20242;-80
2023/04/10 01:07:48;;;;;;;8.85;7.00;;;;;;;;;;5077964;28;20213;-81
2023/04/10 01:10:17;;;;;;;9.68;7.15;;;;;;;;;;5078449;28;20176;-81
2023/04/10 01:12:52;;;;;;;10.02;8.38;;;;;;;;;;5078083;28;20173;-80
2023/04/10 01:15:19;;;;;;;10.43;7.63;;;;;;;;;;5076908;28;20186;-81
2023/04/10 01:17:49;;;;;;;10.25;7.30;;;;;;;;;;5076916;28;20232;-81
2023/04/10 01:20:22;;;;;;;8.95;7.15;;;;;;;;;;5078204;28;20232;-82
2023/04/10 01:23:07;;;;;;;10.23;6.68;;;;;;;;;;5078247;28;20183;-80
2023/04/10 01:25:48;;;;;;;11.07;7.65;;;;;;;;;;5077373;28;20184;-81
2023/04/10 01:28:33;;;;;;;9.48;8.07;;;;;;;;;;5076577;28;20212;-80
2023/04/10 01:31:00;;;;;;;8.65;7.15;;;;;;;;;;5077163;28;20172;-81
2023/04/10 01:33:30;;;;;;;7.07;6.10;;;;;;;;;;5077820;28;20194;-80
2023/04/10 01:35:57;;;;;;;9.68;7.05;;;;;;;;;;5076439;28;20260;-81
2023/04/10 01:38:26;;;;;;;8.13;6.45;;;;;;;;;;5077274;28;20259;-81
2023/04/10 01:40:52;;;;;;;9.35;7.15;;;;;;;;;;5077839;28;20177;-81
2023/04/10 01:43:20;;;;;;;10.35;7.60;;;;;;;;;;5077405;28;20176;-81
2023/04/10 01:45:47;;;;;;;8.60;7.13;;;;;;;;;;5077571;28;20574;-80
2023/04/10 01:48:16;;;;;;;7.55;6.75;;;;;;;;;;5077636;28;20215;-80
2023/04/10 01:50:43;;;;;;;10.00;7.60;;;;;;;;;;5060434;28;20177;-81
2023/04/10 01:53:09;;;;;;;7.43;6.25;;;;;;;;;;5077339;28;20184;-80
2023/04/10 01:55:36;;;;;;;12.10;7.47;;;;;;;;;;5076139;28;20186;-81
2023/04/10 01:58:03;;;;;;;13.07;7.70;;;;;;;;;;5076105;28;20180;-81
2023/04/10 02:00:29;;;;;;;9.05;7.53;;;;;;;;;;5076209;28;20178;-80
2023/04/10 02:02:57;;;;;;;8.88;6.65;;;;;;;;;;5076330;28;20177;-80
2023/04/10 02:05:26;;;;;;;10.45;7.70;;;;;;;;;;5076093;28;20669;-81
2023/04/10 02:08:01;;;;;;;9.15;6.80;;;;;;;;;;5077621;28;20210;-80
2023/04/10 02:10:36;;;;;;;8.98;6.70;;;;;;;;;;5077213;28;20169;-80
2023/04/10 02:13:09;;;;;;;7.43;6.25;;;;;;;;;;5077656;28;20171;-80
2023/04/10 02:15:36;;;;;;;7.53;6.47;;;;;;;;;;5077098;28;20166;-80
2023/04/10 02:18:03;;;;;;;9.00;6.93;;;;;;;;;;5075651;28;20260;-81
2023/04/10 02:20:30;;;;;;;8.43;6.22;;;;;;;;;;5077304;28;20215;-81
2023/04/10 02:22:58;;;;;;;8.25;6.40;;;;;;;;;;5077271;28;20169;-80
2023/04/10 02:25:25;;;;;;;7.80;6.43;;;;;;;;;;5076927;28;20185;-81
2023/04/10 02:27:50;;;;;;;7.75;6.13;;;;;;;;;;5076908;28;20203;-80
2023/04/10 02:30:17;;;;;;;9.57;7.60;;;;;;;;;;5076167;28;20267;-80
2023/04/10 02:32:42;;;;;;;9.32;6.70;;;;;;;;;;5075456;28;20407;-80
2023/04/10 02:35:08;;;;;;;8.27;7.00;;;;;;;;;;5076002;28;20195;-80
2023/04/10 02:37:35;;;;;;;9.88;6.90;;;;;;;;;;5058462;28;20577;-80
2023/04/10 02:40:01;;;;;;;7.95;6.18;;;;;;;;;;5075402;28;20172;-80
2023/04/10 02:42:27;;;;;;;8.30;6.90;;;;;;;;;;5075740;28;20177;-80
2023/04/10 02:44:53;;;;;;;9.00;7.13;;;;;;;;;;5075778;28;20413;-80
2023/04/10 02:47:20;;;;;;;8.20;7.17;;;;;;;;;;5075497;28;20472;-83
2023/04/10 02:49:47;;;;;;;8.73;7.25;;;;;;;;;;5075663;28;20524;-80
2023/04/10 02:52:13;;;;;;;8.48;7.35;;;;;;;;;;5059194;28;20182;-80
2023/04/10 02:54:39;;;;;;;9.97;8.47;;;;;;;;;;5058451;28;20180;-80
2023/04/10 02:57:05;;;;;;;9.35;7.80;;;;;;;;;;5059285;28;20422;-80
2023/04/10 02:59:32;;;;;;;9.63;7.50;;;;;;;;;;5075328;28;20204;-80
2023/04/10 03:01:58;;;;;;;11.00;7.93;;;;;;;;;;5058765;28;20180;-80
2023/04/10 03:04:24;;;;;;;10.43;8.30;;;;;;;;;;5074971;28;20556;-81
2023/04/10 03:06:49;;;;;;;10.88;8.32;;;;;;;;;;5058737;28;20407;-80
2023/04/10 03:09:15;;;;;;;11.93;8.43;;;;;;;;;;5074906;28;20578;-80
2023/04/10 03:11:41;;;;;;;10.70;8.50;;;;;;;;;;5075920;28;20169;-80
2023/04/10 03:14:08;;;;;;;12.10;8.55;;;;;;;;;;5058365;28;20419;-80
2023/04/10 03:16:34;;;;;;;10.35;8.88;;;;;;;;;;5073972;28;20282;-80
2023/04/10 03:19:00;;;;;;;11.48;8.98;;;;;;;;;;5074987;28;20169;-81
2023/04/10 03:21:27;;;;;;;12.60;9.27;;;;;;;;;;5074829;28;20189;-81
2023/04/10 03:23:53;;;;;;;12.25;9.80;;;;;;;;;;5074108;28;20406;-80
2023/04/10 03:26:20;;;;;;;12.90;8.90;;;;;;;;;;5076170;28;20181;-80
2023/04/10 03:28:46;;;;;;;10.90;8.77;;;;;;;;;;5075564;28;20462;-80
2023/04/10 03:31:12;;;;;;;10.48;8.18;;;;;;;;;;5075984;28;20652;-80
2023/04/10 03:33:38;;;;;;;11.13;8.50;;;;;;;;;;5073762;28;20189;-81
2023/04/10 03:36:04;;;;;;;12.18;8.73;;;;;;;;;;5075365;28;20437;-80
2023/04/10 03:38:30;;;;;;;12.85;9.30;;;;;;;;;;5073774;28;20176;-80
2023/04/10 03:40:56;;;;;;;12.13;8.47;;;;;;;;;;5075519;28;20176;-80
2023/04/10 03:43:22;;;;;;;11.63;8.93;;;;;;;;;;5074308;28;20468;-83
2023/04/10 03:45:48;;;;;;;13.30;9.23;;;;;;;;;;5074147;28;20506;-80
2023/04/10 03:48:15;;;;;;;11.85;9.05;;;;;;;;;;5073759;28;20610;-81
2023/04/10 03:50:41;;;;;;;10.82;8.38;;;;;;;;;;5073506;28;20715;-81
2023/04/10 03:53:07;;;;;;;11.18;8.25;;;;;;;;;;5073747;28;20208;-80
2023/04/10 03:55:33;;;;;;;13.18;8.20;;;;;;;;;;5075233;28;20205;-81
2023/04/10 03:57:59;;;;;;;12.20;8.93;;;;;;;;;;5058045;28;20188;-80
2023/04/10 04:00:26;;;;;;;12.93;8.82;;;;;;;;;;5076490;28;20199;-81
2023/04/10 04:02:52;;;;;;;13.52;7.97;;;;;;;;;;5074797;28;20168;-80
2023/04/10 04:05:18;;;;;;;10.07;7.72;;;;;;;;;;5073796;28;20689;-80
2023/04/10 04:07:44;;;;;;;12.25;8.90;;;;;;;;;;5073763;28;20211;-80
2023/04/10 04:10:11;;;;;;;10.35;7.90;;;;;;;;;;5057543;28;20190;-80
2023/04/10 04:12:37;;;;;;;13.73;9.05;;;;;;;;;;5074282;28;20169;-80
2023/04/10 04:15:03;;;;;;;10.90;8.17;;;;;;;;;;5073811;28;20180;-80
2023/04/10 04:17:29;;;;;;;11.30;9.05;;;;;;;;;;5074788;28;20498;-81
2023/04/10 04:19:55;;;;;;;13.13;8.68;;;;;;;;;;5074966;28;20173;-80
2023/04/10 04:22:21;;;;;;;12.80;9.10;;;;;;;;;;5075049;28;20199;-81
2023/04/10 04:24:47;;;;;;;12.23;9.20;;;;;;;;;;5075200;28;20407;-80
2023/04/10 04:27:13;;;;;;;12.50;9.50;;;;;;;;;;5057140;28;20510;-80
2023/04/10 04:29:39;;;;;;;11.90;9.17;;;;;;;;;;5073263;28;20183;-80
2023/04/10 04:32:05;;;;;;;19.30;9.45;;;;;;;;;;5074835;28;20937;-80
2023/04/10 04:34:31;;;;;;;12.55;9.63;;;;;;;;;;5076073;28;20207;-80
2023/04/10 04:36:57;;;;;;;13.57;9.20;;;;;;;;;;5061573;28;20651;-80
2023/04/10 04:39:23;;;;;;;11.07;8.40;;;;;;;;;;5077543;28;20421;-80
2023/04/10 04:41:49;;;;;;;13.93;10.33;;;;;;;;;;5078888;28;20635;-80
2023/04/10 04:44:15;;;;;;;12.23;10.05;;;;;;;;;;5079095;28;20409;-80
2023/04/10 04:46:41;;;;;;;12.27;9.13;;;;;;;;;;5060714;28;20185;-80
2023/04/10 04:49:07;;;;;;;12.98;9.50;;;;;;;;;;5077443;28;20453;-80
2023/04/10 04:51:34;;;;;;;14.55;9.70;;;;;;;;;;5060170;28;20585;-80
2023/04/10 04:54:00;;;;;;;13.55;9.35;;;;;;;;;;5077261;28;20180;-80
2023/04/10 04:56:26;;;;;;;15.33;9.20;;;;;;;;;;5077203;28;20179;-83
2023/04/10 04:58:52;;;;;;;15.43;9.83;;;;;;;;;;5078595;28;20398;-80
2023/04/10 05:01:18;;;;;;;13.60;9.77;;;;;;;;;;5078677;28;20486;-80
2023/04/10 05:03:44;;;;;;;11.63;9.13;;;;;;;;;;5077375;28;20924;-80
2023/04/10 05:06:10;;;;;;;13.88;9.45;;;;;;;;;;5077265;28;20431;-80
2023/04/10 05:08:36;;;;;;;21.92;10.73;;;;;;;;;;5078072;28;20313;-80
2023/04/10 05:11:02;;;;;;;14.63;10.40;;;;;;;;;;5078001;28;20307;-80
2023/04/10 05:13:28;;;;;;;12.93;9.37;;;;;;;;;;5078369;28;20408;-83
2023/04/10 05:15:54;;;;;;;14.97;9.27;;;;;;;;;;5078481;28;20748;-81
2023/04/10 05:18:22;;;;;;;11.27;8.85;;;;;;;;;;5078197;28;20548;-80
2023/04/10 05:20:48;;;;;;;13.48;9.68;;;;;;;;;;5077770;28;20177;-81
2023/04/10 05:23:14;;;;;;;11.82;8.77;;;;;;;;;;5060527;28;20184;-80
2023/04/10 05:25:40;;;;;;;12.65;9.75;;;;;;;;;;5077707;28;20179;-81
2023/04/10 05:28:06;;;;;;;13.43;9.60;;;;;;;;;;5060477;28;20212;-80
2023/04/10 05:30:32;;;;;;;9.98;8.82;;;;;;;;;;5076719;28;20279;-81
2023/04/10 05:32:58;;;;;;;14.60;10.13;;;;;;;;;;5060482;28;20203;-80
2023/04/10 05:35:24;;;;;;;12.33;9.20;;;;;;;;;;5078031;28;20406;-80
2023/04/10 05:37:50;;;;;;;14.45;9.40;;;;;;;;;;5076421;28;20506;-80
2023/04/10 05:40:16;;;;;;;13.93;10.00;;;;;;;;;;5077643;28;20204;-80
2023/04/10 05:42:42;;;;;;;12.23;9.20;;;;;;;;;;5077048;28;20187;-80
2023/04/10 05:45:09;;;;;;;11.80;8.87;;;;;;;;;;5075730;28;20255;-80
2023/04/10 05:47:35;;;;;;;11.85;8.85;;;;;;;;;;5076050;28;20467;-81
2023/04/10 05:50:01;;;;;;;11.32;9.38;;;;;;;;;;5077898;28;20180;-80
2023/04/10 05:52:27;;;;;;;12.45;9.20;;;;;;;;;;5060201;28;20584;-80
2023/04/10 05:54:53;;;;;;;10.77;9.27;;;;;;;;;;5076025;28;20180;-80
2023/04/10 05:57:19;;;;;;;10.97;9.00;;;;;;;;;;5076467;28;20427;-80
2023/04/10 05:59:45;;;;;;;10.77;8.63;;;;;;;;;;5077789;28;20497;-80
2023/04/10 06:02:11;;;;;;;9.97;8.10;;;;;;;;;;5077443;28;20238;-80
2023/04/10 06:04:37;;;;;;;11.53;9.10;;;;;;;;;;5059456;28;20414;-80
2023/04/10 06:07:03;;;;;;;13.93;8.90;;;;;;;;;;5059898;28;20423;-80
2023/04/10 06:09:29;;;;;;;11.03;8.90;;;;;;;;;;5059459;28;20215;-81
2023/04/10 06:11:55;;;;;;;10.33;8.03;;;;;;;;;;5075797;28;20510;-80
2023/04/10 06:14:21;;;;;;;10.30;8.52;;;;;;;;;;5075143;28;20408;-80
2023/04/10 06:16:47;;;;;;;9.93;8.10;;;;;;;;;;5075435;28;20569;-80
2023/04/10 06:19:13;;;;;;;13.02;8.02;;;;;;;;;;5076442;28;20833;-80
2023/04/10 06:21:39;;;;;;;10.80;7.67;;;;;;;;;;5077017;28;20210;-81
2023/04/10 06:24:05;;;;;;;10.20;7.75;;;;;;;;;;5077307;28;20952;-80
2023/04/10 06:26:31;;;;;;;11.45;7.70;;;;;;;;;;5077655;28;20671;-80
2023/04/10 06:28:57;;;;;;;10.00;8.23;;;;;;;;;;5076353;28;20236;-80
2023/04/10 06:31:23;;;;;;;9.60;7.00;;;;;;;;;;5076681;28;20755;-80
2023/04/10 06:33:50;;;;;;;11.50;8.65;;;;;;;;;;5075630;28;20552;-80
2023/04/10 06:36:16;;;;;;;9.60;7.60;;;;;;;;;;5076810;28;20180;-80
2023/04/10 06:38:42;;;;;;;10.63;7.97;;;;;;;;;;5075718;28;20195;-80
2023/04/10 06:41:08;;;;;;;9.05;7.78;;;;;;;;;;5076213;28;20226;-80
2023/04/10 06:43:34;;;;;;;8.57;7.33;;;;;;;;;;5059078;28;20181;-81
2023/04/10 06:46:00;;;;;;;9.43;7.30;;;;;;;;;;5076332;28;20412;-81
2023/04/10 06:48:26;;;;;;;9.30;7.82;;;;;;;;;;5075922;28;20262;-80
2023/04/10 06:50:52;;;;;;;9.03;6.97;;;;;;;;;;5059020;28;20192;-81
2023/04/10 06:53:18;;;;;;;8.40;6.80;;;;;;;;;;5075305;28;20411;-80
2023/04/10 06:55:45;;;;;;;10.32;8.63;;;;;;;;;;5058948;28;20177;-80
2023/04/10 06:58:11;;;;;;;8.80;7.43;;;;;;;;;;5075479;28;20565;-80
2023/04/10 07:00:37;;;;;;;10.20;7.40;;;;;;;;;;5074913;28;20185;-80
2023/04/10 07:03:03;;;;;;;8.13;7.22;;;;;;;;;;5075189;28;20403;-81
2023/04/10 07:05:29;;;;;;;8.43;7.38;;;;;;;;;;5058719;28;20193;-81
2023/04/10 07:07:55;;;;;;;10.07;7.60;;;;;;;;;;5074815;28;20227;-80
2023/04/10 07:10:21;;;;;;;9.57;7.90;;;;;;;;;;5076140;28;20180;-80
2023/04/10 07:12:47;;;;;;;8.50;7.10;;;;;;;;;;5075785;28;20399;-81
2023/04/10 07:15:13;;;;;;;7.97;6.53;;;;;;;;;;5074558;28;20514;-80
2023/04/10 07:17:39;;;;;;;7.70;6.90;;;;;;;;;;5073771;28;20462;-80
2023/04/10 07:20:06;;;;;;;8.13;6.65;;;;;;;;;;5075621;28;20403;-81
2023/04/10 07:22:32;;;;;;;10.70;7.88;;;;;;;;;;5074295;28;20177;-83
2023/04/10 07:24:58;;;;;;;9.77;7.30;;;;;;;;;;5073763;28;20180;-82
2023/04/10 07:27:24;;;;;;;8.35;6.95;;;;;;;;;;5057957;28;20753;-82
2023/04/10 07:29:50;;;;;;;8.85;7.82;;;;;;;;;;5057832;28;20200;-81
2023/04/10 07:32:16;;;;;;;8.07;6.38;;;;;;;;;;5075614;28;20180;-81
2023/04/10 07:34:43;;;;;;;9.32;7.38;;;;;;;;;;5075472;28;20172;-82
2023/04/10 07:37:09;;;;;;;8.30;7.45;;;;;;;;;;5074699;28;20227;-82
2023/04/10 07:39:35;;;;;;;7.95;6.47;;;;;;;;;;5074158;28;20226;-82
2023/04/10 07:42:01;;;;;;;8.25;6.78;;;;;;;;;;5074349;28;20238;-82
2023/04/10 07:44:27;;;;;;;9.20;6.60;;;;;;;;;;5057599;28;20181;-82
2023/04/10 07:46:54;;;;;;;7.20;6.33;;;;;;;;;;5073803;28;20407;-82
2023/04/10 07:49:20;;;;;;;8.23;6.70;;;;;;;;;;5075365;28;20535;-82
2023/04/10 07:51:46;;;;;;;11.03;7.70;;;;;;;;;;5074582;28;20399;-82
2023/04/10 07:54:12;;;;;;;10.07;7.70;;;;;;;;;;5074206;28;20422;-82
2023/04/10 07:56:38;;;;;;;8.60;7.80;;;;;;;;;;5073457;28;20927;-84
2023/04/10 07:59:05;;;;;;;8.33;6.80;;;;;;;;;;5075066;28;20422;-83
2023/04/10 08:01:32;;;;;;;7.70;6.90;;;;;;;;;;5073758;28;20412;-82
2023/04/10 08:03:58;;;;;;;8.07;7.27;;;;;;;;;;5074950;28;20418;-83
2023/04/10 08:06:24;;;;;;;9.70;6.53;;;;;;;;;;5073377;28;20403;-83
2023/04/10 08:08:53;;;;;;;9.53;7.60;;;;;;;;;;5072902;28;20459;-83
2023/04/10 08:11:26;;;;;;;8.10;7.30;;;;;;;;;;5057109;28;20423;-83
2023/04/10 08:13:54;;;;;;;7.80;7.00;;;;;;;;;;5073411;28;20407;-83
2023/04/10 08:16:26;;;;;;;7.43;6.00;;;;;;;;;;5073294;28;20411;-84
2023/04/10 08:18:55;;;;;;;6.80;6.10;;;;;;;;;;5074769;28;20474;-84
2023/04/10 08:21:21;;;;;;;7.47;6.77;;;;;;;;;;5074987;28;20980;-83
2023/04/10 08:23:50;;;;;;;7.03;5.53;;;;;;;;;;5073445;28;20418;-83
2023/04/10 08:26:16;;;;;;;8.07;6.07;;;;;;;;;;5074683;28;20453;-83
2023/04/10 08:28:46;;;;;;;5.40;4.47;;;;;;;;;;5073617;28;20527;-83
2023/04/10 08:31:13;;;;;;;5.80;5.20;;;;;;;;;;5074801;28;20407;-83
2023/04/10 08:33:40;;;;;;;6.90;5.03;;;;;;;;;;5074886;28;20757;-83
2023/04/10 08:36:08;;;;;;;5.83;4.20;;;;;;;;;;5073150;28;20835;-83
2023/04/10 08:38:34;;;;;;;4.87;4.40;;;;;;;;;;5073296;28;20422;-83
2023/04/10 08:41:00;;;;;;;4.67;4.27;;;;;;;;;;5056236;28;20827;-83
2023/04/10 08:43:26;;;;;;;5.07;4.53;;;;;;;;;;5056266;28;20421;-84
2023/04/10 08:45:52;;;;;;;4.80;4.40;;;;;;;;;;5056347;28;20421;-84
2023/04/10 08:48:22;;;;;;;5.27;4.17;;;;;;;;;;5073303;28;20448;-84
2023/04/10 08:50:49;;;;;;;4.37;3.90;;;;;;;;;;5073281;28;20934;-83
2023/04/10 08:53:15;;;;;;;4.93;3.97;;;;;;;;;;5072976;28;20426;-83
2023/04/10 08:55:41;;;;;;;5.07;4.00;;;;;;;;;;5072868;28;20411;-82
2023/04/10 08:58:10;;;;;;;5.27;4.77;;;;;;;;;;5072914;28;20446;-84
2023/04/10 09:00:37;;;;;;;4.53;3.97;;;;;;;;;;5072780;28;20959;-82
2023/04/10 09:03:07;;;;;;;4.77;4.10;;;;;;;;;;5056336;28;20828;-82
2023/04/10 09:05:33;;;;;;;4.37;3.97;;;;;;;;;;5073259;28;20993;-83
2023/04/10 09:07:59;;;;;;;4.90;4.40;;;;;;;;;;5072587;28;20503;-83
2023/04/10 09:10:25;;;;;;;4.00;3.63;;;;;;;;;;5056315;28;20419;-82
2023/04/10 09:12:51;;;;;;;5.23;4.60;;;;;;;;;;5072843;28;20415;-83
2023/04/10 09:15:17;;;;;;;4.40;4.00;;;;;;;;;;5072797;28;20421;-82
2023/04/10 09:18:00;;;;;;;4.23;3.83;;;;;;;;;;5072082;28;20545;-84
2023/04/10 09:20:28;;;;;;;4.50;4.10;;;;;;;;;;5072875;28;20514;-83
2023/04/10 09:22:54;;;;;;;6.83;4.90;;;;;;;;;;5076313;28;20933;-83
2023/04/10 09:25:30;;;;;;;4.10;3.70;;;;;;;;;;5076467;28;20418;-83
2023/04/10 09:28:03;;;;;;;4.47;3.93;;;;;;;;;;5075633;28;20432;-87
2023/04/10 09:30:47;;;;;;;4.63;4.13;;;;;;;;;;5077556;28;20409;-85
2023/04/10 09:33:23;;;;;;;4.30;3.90;;;;;;;;;;5076315;28;20778;-84
2023/04/10 09:35:50;;;;;;;4.00;3.67;;;;;;;;;;5075804;28;20929;-84
2023/04/10 09:38:20;;;;;;;4.30;3.90;;;;;;;;;;5077005;28;20496;-85
2023/04/10 09:40:47;;;;;;;4.50;4.10;;;;;;;;;;5076752;28;20728;-85
2023/04/10 09:43:16;;;;;;;4.33;3.83;;;;;;;;;;5075766;28;20451;-84
2023/04/10 09:45:49;;;;;;;4.70;4.30;;;;;;;;;;5075669;28;20415;-84
2023/04/10 09:48:16;;;;;;;4.50;4.10;;;;;;;;;;5076788;28;20521;-84
2023/04/10 09:50:42;;;;;;;4.47;4.03;;;;;;;;;;5076595;28;20410;-84
2023/04/10 09:53:18;;;;;;;4.23;3.87;;;;;;;;;;5075264;28;20394;-85
2023/04/10 09:55:45;;;;;;;4.03;3.67;;;;;;;;;;5075593;28;20415;-89
2023/04/10 09:58:11;;;;;;;4.00;3.60;;;;;;;;;;5075510;28;20510;-85
2023/04/10 10:00:47;;;;;;;3.37;3.07;;;;;;;;;;5075061;28;20738;-85
2023/04/10 10:03:14;;;;;;;3.10;2.80;;;;;;;;;;5075169;28;20774;-84
2023/04/10 10:05:42;;;;;;;3.13;2.83;;;;;;;;;;5076282;28;20399;-84
2023/04/10 10:08:12;;;;;;;3.17;2.87;;;;;;;;;;5074863;28;20455;-85
2023/04/10 10:10:58;;;;;;;3.10;2.80;;;;;;;;;;5075537;28;20402;-84
2023/04/10 10:13:37;;;;;;;2.53;2.33;;;;;;;;;;5074804;28;20432;-85
2023/04/10 10:16:18;;;;;;;2.77;2.57;;;;;;;;;;5075939;28;20403;-84
2023/04/10 10:18:45;;;;;;;3.07;2.87;;;;;;;;;;5075230;28;20815;-85
2023/04/10 10:21:12;;;;;;;3.00;2.70;;;;;;;;;;5076287;28;20498;-85
2023/04/10 10:23:39;;;;;;;3.00;2.40;;;;;;;;;;5073821;28;20510;-85
2023/04/10 10:26:07;;;;;;;2.50;2.20;;;;;;;;;;5075830;28;20403;-85
2023/04/10 10:28:33;;;;;;;2.60;2.40;;;;;;;;;;5074956;28;20458;-84
2023/04/10 10:31:00;;;;;;;3.30;2.67;;;;;;;;;;5074501;28;20885;-85
2023/04/10 10:33:29;;;;;;;3.20;2.90;;;;;;;;;;5076275;28;20407;-85
2023/04/10 10:35:59;;;;;;;3.00;2.60;;;;;;;;;;5057589;28;20423;-85
2023/04/10 10:38:26;;;;;;;3.23;2.93;;;;;;;;;;5074776;28;20923;-82
2023/04/10 10:41:10;;;;;;;2.50;2.30;;;;;;;;;;5057931;28;20486;-87
2023/04/10 10:43:50;;;;;;;2.90;2.60;;;;;;;;;;5074143;28;20918;-83
2023/04/10 10:46:20;;;;;;;3.50;2.80;;;;;;;;;;5075068;28;20399;-83
2023/04/10 10:48:56;;;;;;;2.93;2.60;;;;;;;;;;5073474;28;20470;-83
2023/04/10 10:51:22;;;;;;;2.43;2.23;;;;;;;;;;5072734;28;20934;-83
2023/04/10 10:53:48;;;;;;;3.63;3.23;;;;;;;;;;5074141;28;20390;-85
2023/04/10 10:56:17;;;;;;;3.00;2.70;;;;;;;;;;5053677;28;20953;-81
2023/04/10 10:58:51;;;;;;;3.30;2.83;;;;;;;;;;5053771;28;20794;-86
2023/04/10 11:01:17;;;;;;;2.80;2.60;;;;;;;;;;5054002;28;20954;-82
2023/04/10 11:03:44;;;;;;;4.43;2.30;;;;;;;;;;5054188;28;20419;-84
2023/04/10 11:06:20;;;;;;;3.20;2.53;;;;;;;;;;5053909;28;20935;-84
2023/04/10 11:08:51;;;;;;;2.30;2.10;;;;;;;;;;5071762;28;20433;-86
2023/04/10 11:11:24;;;;;;;2.33;2.00;;;;;;;;;;5073309;28;20419;-84
2023/04/10 11:13:56;;;;;;;1.73;1.50;;;;;;;;;;5073169;28;20411;-86
2023/04/10 11:16:35;;;;;;;3.77;2.33;;;;;;;;;;5073096;28;20419;-84
2023/04/10 11:19:02;;;;;;;2.00;1.87;;;;;;;;;;5073526;28;20453;-85
2023/04/10 11:21:29;;;;;;;2.50;2.30;;;;;;;;;;5073054;28;20574;-86
2023/04/10 11:23:55;;;;;;;2.40;2.20;;;;;;;;;;5074981;28;20418;-86
2023/04/10 11:26:37;;;;;;;2.37;2.17;;;;;;;;;;5073867;28;20490;-86
2023/04/10 11:29:26;;;;;;;2.90;2.70;;;;;;;;;;5074283;28;20466;-85
2023/04/10 11:31:59;;;;;;;3.00;2.67;;;;;;;;;;5062686;28;20470;-85
2023/04/10 11:34:26;;;;;;;3.60;2.50;;;;;;;;;;5054978;28;20462;-84
2023/04/10 11:36:52;;;;;;;2.60;2.40;;;;;;;;;;5052684;28;20942;-83
2023/04/10 11:39:19;;;;;;;2.97;2.67;;;;;;;;;;5052888;28;20901;-82
2023/04/10 11:41:45;;;;;;;2.93;2.30;;;;;;;;;;5052752;28;20412;-83
2023/04/10 11:44:27;;;;;;;3.00;2.47;;;;;;;;;;5053065;28;20408;-82
2023/04/10 11:46:53;;;;;;;2.20;2.00;;;;;;;;;;5059915;28;20417;-82
2023/04/10 11:49:23;;;;;;;2.40;2.13;;;;;;;;;;5073930;28;20425;-83
2023/04/10 11:51:50;;;;;;;2.40;2.20;;;;;;;;;;5073041;28;20407;-82
2023/04/10 11:54:19;;;;;;;3.10;1.90;;;;;;;;;;5072143;28;20374;-83
2023/04/10 11:56:46;;;;;;;2.30;2.10;;;;;;;;;;5074071;28;20402;-82
2023/04/10 11:59:14;;;;;;;2.33;2.10;;;;;;;;;;5073758;28;20389;-82
2023/04/10 12:01:41;;;;;;;1.90;1.80;;;;;;;;;;5072569;28;20820;-86
2023/04/10 12:04:17;;;;;;;3.00;1.87;;;;;;;;;;5073081;28;20397;-86
2023/04/10 12:06:53;;;;;;;2.50;2.30;;;;;;;;;;5072707;28;20421;-86
2023/04/10 12:09:20;;;;;;;2.07;1.83;;;;;;;;;;5072684;28;20474;-87
2023/04/10 12:11:50;;;;;;;1.87;1.73;;;;;;;;;;5077085;28;20370;-88
2023/04/10 12:14:16;;;;;;;2.30;2.00;;;;;;;;;;5074080;28;20407;-86
2023/04/10 12:16:43;;;;;;;2.40;2.20;;;;;;;;;;5072709;28;20445;-86
2023/04/10 12:19:09;;;;;;;2.10;1.90;;;;;;;;;;5073031;28;20407;-86
2023/04/10 12:21:35;;;;;;;2.30;2.10;;;;;;;;;;5072658;28;20766;-87
2023/04/10 12:24:01;;;;;;;2.90;1.80;;;;;;;;;;5072448;28;20985;-87
2023/04/10 12:26:27;;;;;;;2.33;2.13;;;;;;;;;;5056310;28;20921;-87
2023/04/10 12:28:55;;;;;;;2.17;1.97;;;;;;;;;;5072477;28;20974;-91
2023/04/10 12:31:32;;;;;;;2.30;2.10;;;;;;;;;;5072774;28;20787;-87
2023/04/10 12:33:58;;;;;;;2.43;2.17;;;;;;;;;;5073675;28;20528;-88
2023/04/10 12:36:28;;;;;;;2.10;1.90;;;;;;;;;;5073796;28;20885;-86
2023/04/10 12:38:55;;;;;;;2.40;2.20;;;;;;;;;;5072235;28;20393;-90
2023/04/10 12:41:22;;;;;;;4.90;2.63;;;;;;;;;;5072556;28;20938;-87
2023/04/10 12:43:48;;;;;;;4.20;2.17;;;;;;;;;;5073767;28;20399;-86
2023/04/10 12:46:26;;;;;;;2.60;2.40;;;;;;;;;;5071886;28;20784;-85
2023/04/10 12:48:54;;;;;;;1.70;1.60;;;;;;;;;;5069533;28;20455;-85
2023/04/10 12:51:40;;;;;;;6.80;5.50;;;;;;;;;;5072843;28;20780;-86
2023/04/10 12:54:06;;;;;;;1.93;1.73;;;;;;;;;;5072018;28;20407;-89
2023/04/10 12:56:42;;;;;;;2.17;2.03;;;;;;;;;;5075199;28;20662;-85
2023/04/10 12:59:08;;;;;;;2.40;2.20;;;;;;;;;;5077776;28;20385;-86
2023/04/10 13:01:34;;;;;;;2.07;1.80;;;;;;;;;;5077420;28;20418;-85
2023/04/10 13:04:01;;;;;;;1.80;1.70;;;;;;;;;;5075288;28;20468;-87
2023/04/10 13:06:27;;;;;;;2.07;1.87;;;;;;;;;;5076350;28;20484;-86
2023/04/10 13:08:54;;;;;;;2.37;2.17;;;;;;;;;;5075818;28;20455;-88
2023/04/10 13:11:21;;;;;;;2.37;2.17;;;;;;;;;;5076638;28;20388;-88
2023/04/10 13:13:48;;;;;;;1.70;1.60;;;;;;;;;;5075823;28;20464;-87
2023/04/10 13:16:14;;;;;;;4.20;2.07;;;;;;;;;;5075566;28;20393;-87
2023/04/10 13:18:40;;;;;;;1.70;1.60;;;;;;;;;;5075527;28;20407;-87
2023/04/10 13:21:06;;;;;;;2.70;2.17;;;;;;;;;;5059234;28;20770;-88
2023/04/10 13:23:32;;;;;;;2.50;2.10;;;;;;;;;;5075960;28;20403;-86
2023/04/10 13:25:58;;;;;;;2.03;1.80;;;;;;;;;;5076491;28;20399;-88
2023/04/10 13:28:24;;;;;;;2.80;2.03;;;;;;;;;;5058995;28;20467;-87
2023/04/10 13:30:51;;;;;;;2.20;2.00;;;;;;;;;;5076753;28;20895;-86
2023/04/10 13:33:17;;;;;;;2.43;2.23;;;;;;;;;;5075134;28;21131;-90
2023/04/10 13:35:43;;;;;;;2.40;2.20;;;;;;;;;;5075217;28;20502;-87
2023/04/10 13:38:10;;;;;;;2.50;2.30;;;;;;;;;;5076302;28;20465;-89
2023/04/10 13:40:36;;;;;;;2.30;2.10;;;;;;;;;;5076000;28;20411;-86
2023/04/10 13:43:03;;;;;;;2.47;1.83;;;;;;;;;;5076023;28;20435;-90
2023/04/10 13:45:29;;;;;;;2.20;2.00;;;;;;;;;;5076386;28;20789;-89
2023/04/10 13:47:55;;;;;;;2.77;2.13;;;;;;;;;;5075202;28;20501;-88
2023/04/10 13:50:21;;;;;;;3.00;1.77;;;;;;;;;;5073953;28;20434;-88
2023/04/10 13:52:47;;;;;;;2.23;2.03;;;;;;;;;;5075106;28;20416;-87
2023/04/10 13:55:13;;;;;;;2.40;1.87;;;;;;;;;;5074795;28;20448;-87
2023/04/10 13:57:39;;;;;;;2.40;2.20;;;;;;;;;;5075989;28;20403;-88
2023/04/10 14:00:06;;;;;;;1.93;1.73;;;;;;;;;;5074475;28;20412;-87
2023/04/10 14:02:32;;;;;;;1.80;1.70;;;;;;;;;;5075939;28;20925;-86
2023/04/10 14:04:58;;;;;;;1.83;1.73;;;;;;;;;;5075860;28;20750;-87
2023/04/10 14:07:24;;;;;;;2.10;1.90;;;;;;;;;;5075715;28;20407;-88
2023/04/10 14:09:50;;;;;;;2.13;1.97;;;;;;;;;;5074656;28;20480;-88
2023/04/10 14:12:18;;;;;;;1.83;1.73;;;;;;;;;;5075396;28;20404;-88
2023/04/10 14:14:44;;;;;;;2.83;2.40;;;;;;;;;;5074890;28;20394;-88
2023/04/10 14:17:10;;;;;;;2.13;2.03;;;;;;;;;;5075209;28;20470;-88
2023/04/10 14:19:37;;;;;;;2.67;2.20;;;;;;;;;;5074096;28;20402;-87
2023/04/10 14:22:04;;;;;;;1.87;1.73;;;;;;;;;;5075639;28;20261;-89
2023/04/10 14:24:30;;;;;;;1.80;1.70;;;;;;;;;;5074502;28;20382;-87
2023/04/10 14:26:59;;;;;;;2.30;2.00;;;;;;;;;;5074123;28;20752;-88
2023/04/10 14:29:25;;;;;;;2.13;1.50;;;;;;;;;;5075064;28;20433;-88
2023/04/10 14:31:51;;;;;;;2.77;2.57;;;;;;;;;;5075187;28;20409;-87
2023/04/10 14:34:17;;;;;;;2.47;2.27;;;;;;;;;;5073476;28;20392;-88
2023/04/10 14:36:44;;;;;;;2.33;2.10;;;;;;;;;;5074212;28;20852;-87
2023/04/10 14:39:10;;;;;;;2.93;2.00;;;;;;;;;;5073646;28;20443;-86
2023/04/10 14:41:36;;;;;;;7.33;2.23;;;;;;;;;;5072970;28;20423;-86